Time;durP1;ratioP1;P1;durP2;ratioP2;P2;SDS_P1;SDS_P2;PMS_P1;PMS_P2;Temp;Humidity;BMP_temperature;BMP_pressure;BME280_temperature;BME280_humidity;BME280_pressure;Samples;Min_cycle;Max_cycle;Signal;HPM_P1;HPM_P2
2021/07/30 00:01:33;;;;;;;1.10;0.98;;;;;;;33.54;26.31;97850.50;5065416;28;20078;-83
2021/07/30 00:03:59;;;;;;;1.38;1.15;;;;;;;33.17;26.73;97843.91;5058045;28;20051;-83
2021/07/30 00:06:26;;;;;;;1.60;1.17;;;;;;;33.24;26.40;97844.25;5058401;28;20056;-82
2021/07/30 00:08:52;;;;;;;1.13;1.00;;;;;;;33.27;26.50;97848.16;5068983;28;20554;-83
2021/07/30 00:11:18;;;;;;;1.00;0.82;;;;;;;33.45;26.13;97836.44;5065853;28;20029;-82
2021/07/30 00:13:44;;;;;;;1.42;0.90;;;;;;;33.69;25.60;97836.91;5057702;28;20040;-83
2021/07/30 00:16:11;;;;;;;1.00;0.90;;;;;;;33.83;25.75;97832.34;5052602;28;20040;-83
2021/07/30 00:18:37;;;;;;;1.42;0.90;;;;;;;33.84;25.12;97831.84;5056785;28;20115;-83
2021/07/30 00:21:04;;;;;;;1.45;1.02;;;;;;;33.77;25.55;97828.69;5064532;28;20538;-83
2021/07/30 00:23:30;;;;;;;5.80;1.05;;;;;;;33.61;25.83;97829.34;5060123;28;20064;-84
2021/07/30 00:26:01;;;;;;;1.30;1.20;;;;;;;33.29;26.36;97837.06;5062911;28;20033;-83
2021/07/30 00:28:28;;;;;;;1.98;0.90;;;;;;;33.13;26.43;97838.47;5054583;28;20058;-83
2021/07/30 00:30:54;;;;;;;4.22;1.40;;;;;;;32.52;27.83;97832.06;5066149;28;20501;-82
2021/07/30 00:33:20;;;;;;;2.78;1.67;;;;;;;32.24;27.82;97830.09;5058116;28;20370;-83
2021/07/30 00:35:46;;;;;;;2.65;1.85;;;;;;;31.93;28.68;97833.50;5063943;28;20064;-83
2021/07/30 00:38:12;;;;;;;2.63;1.73;;;;;;;31.93;28.61;97828.59;5064548;28;20024;-83
2021/07/30 00:40:39;;;;;;;3.08;1.33;;;;;;;32.22;28.01;97826.97;5064038;28;20024;-83
2021/07/30 00:43:06;;;;;;;3.08;1.00;;;;;;;32.65;27.16;97832.47;5069270;28;20167;-83
2021/07/30 00:45:33;;;;;;;2.78;1.65;;;;;;;32.91;27.12;97826.06;5062672;28;20087;-83
2021/07/30 00:48:03;;;;;;;3.47;1.20;;;;;;;33.13;26.64;97824.22;5059274;28;20506;-83
2021/07/30 00:50:32;;;;;;;1.23;1.13;;;;;;;33.30;26.42;97830.09;5068608;28;20028;-83
2021/07/30 00:52:59;;;;;;;1.27;1.10;;;;;;;33.31;26.52;97834.47;5059722;28;20511;-83
2021/07/30 00:55:27;;;;;;;1.48;0.93;;;;;;;33.42;26.26;97834.59;5069116;28;20058;-83
2021/07/30 00:57:54;;;;;;;1.90;1.35;;;;;;;33.58;26.62;97833.22;5065908;28;20033;-83
2021/07/30 01:00:25;;;;;;;1.17;0.93;;;;;;;33.43;26.28;97825.56;5061050;28;20423;-83
2021/07/30 01:02:54;;;;;;;2.45;1.63;;;;;;;33.08;26.76;97830.66;5057760;28;20048;-83
2021/07/30 01:05:29;;;;;;;3.40;2.08;;;;;;;32.49;27.31;97823.69;5062304;28;20033;-82
2021/07/30 01:07:57;;;;;;;2.30;1.58;;;;;;;32.67;27.56;97829.91;5069193;28;20064;-83
2021/07/30 01:10:24;;;;;;;2.13;1.60;;;;;;;32.66;27.26;97831.19;5065137;28;20033;-83
2021/07/30 01:12:51;;;;;;;3.15;1.50;;;;;;;32.78;26.96;97829.25;5067731;28;20028;-82
2021/07/30 01:15:21;;;;;;;3.53;1.55;;;;;;;32.74;27.40;97825.84;5068682;28;20174;-83
2021/07/30 01:17:49;;;;;;;1.92;1.27;;;;;;;32.60;26.95;97821.03;5070291;28;20033;-83
2021/07/30 01:20:21;;;;;;;1.77;1.42;;;;;;;32.74;27.37;97823.78;5057066;28;20048;-83
2021/07/30 01:22:56;;;;;;;1.25;1.15;;;;;;;32.97;26.52;97819.13;5061440;28;20032;-83
2021/07/30 01:25:24;;;;;;;1.15;1.05;;;;;;;33.10;26.59;97827.28;5058862;28;20047;-83
2021/07/30 01:27:56;;;;;;;0.80;0.80;;;;;;;33.15;26.44;97833.06;5049154;28;20043;-83
2021/07/30 01:30:24;;;;;;;1.63;1.25;;;;;;;33.04;26.75;97818.72;5057932;28;20070;-83
2021/07/30 01:32:51;;;;;;;1.25;1.02;;;;;;;33.12;26.74;97825.50;5063925;28;20031;-83
2021/07/30 01:35:17;;;;;;;3.25;1.45;;;;;;;33.00;26.76;97823.78;5060125;28;20128;-83
2021/07/30 01:37:44;;;;;;;3.53;1.27;;;;;;;33.08;26.57;97821.31;5061667;28;20025;-83
2021/07/30 01:40:10;;;;;;;1.15;0.95;;;;;;;33.30;26.41;97819.47;5063952;28;20112;-82
2021/07/30 01:42:38;;;;;;;1.25;1.10;;;;;;;33.51;25.95;97825.09;5066516;28;20037;-82
2021/07/30 01:45:07;;;;;;;5.32;1.48;;;;;;;33.32;26.52;97818.97;5068350;28;20112;-83
2021/07/30 01:47:34;;;;;;;3.13;1.58;;;;;;;33.14;26.70;97819.34;5062057;28;20032;-82
2021/07/30 01:50:01;;;;;;;2.30;1.38;;;;;;;33.16;26.84;97814.72;5058459;28;20032;-82
2021/07/30 01:52:28;;;;;;;4.03;1.40;;;;;;;33.14;26.76;97808.72;5056083;28;20033;-82
2021/07/30 01:54:54;;;;;;;3.13;1.50;;;;;;;32.80;27.40;97812.47;5071144;28;20033;-82
2021/07/30 01:57:20;;;;;;;2.63;1.50;;;;;;;32.74;27.70;97814.47;5065174;28;20543;-83
2021/07/30 01:59:46;;;;;;;2.42;1.35;;;;;;;32.64;27.52;97816.69;5071019;28;20123;-83
2021/07/30 02:02:12;;;;;;;3.35;1.58;;;;;;;32.77;27.62;97821.25;5062980;28;20451;-82
2021/07/30 02:04:38;;;;;;;1.35;1.08;;;;;;;32.99;27.36;97816.56;5063367;28;20499;-82
2021/07/30 02:07:05;;;;;;;1.30;1.00;;;;;;;33.35;27.08;97815.13;5066203;28;20488;-83
2021/07/30 02:09:31;;;;;;;1.30;1.00;;;;;;;33.65;26.63;97807.13;5061744;28;20036;-83
2021/07/30 02:11:58;;;;;;;1.75;1.50;;;;;;;33.63;26.81;97792.63;5058251;28;20392;-82
2021/07/30 02:14:25;;;;;;;1.17;0.90;;;;;;;33.33;27.02;97804.22;5058031;28;20116;-83
2021/07/30 02:17:00;;;;;;;1.63;1.33;;;;;;;33.22;27.08;97806.19;5068009;28;20029;-82
2021/07/30 02:19:26;;;;;;;1.90;1.20;;;;;;;32.92;27.69;97799.94;5056790;28;20505;-82
2021/07/30 02:21:54;;;;;;;1.25;0.95;;;;;;;33.26;26.73;97801.06;5067540;28;20033;-82
2021/07/30 02:24:21;;;;;;;2.28;1.65;;;;;;;33.02;27.13;97806.28;5072043;28;20396;-82
2021/07/30 02:26:48;;;;;;;1.50;1.23;;;;;;;32.96;27.56;97794.00;5061869;28;20032;-83
2021/07/30 02:29:14;;;;;;;3.70;1.17;;;;;;;33.05;27.17;97803.19;5062219;28;20036;-83
2021/07/30 02:31:41;;;;;;;1.50;1.35;;;;;;;33.18;27.12;97802.81;5062035;28;20492;-83
2021/07/30 02:34:07;;;;;;;1.42;1.20;;;;;;;32.90;27.63;97796.81;5061403;28;20548;-82
2021/07/30 02:36:34;;;;;;;1.67;0.90;;;;;;;33.15;27.57;97798.91;5060719;28;20067;-82
2021/07/30 02:39:00;;;;;;;1.27;1.10;;;;;;;33.38;27.13;97792.13;5063239;28;20032;-82
2021/07/30 02:41:26;;;;;;;1.58;1.35;;;;;;;33.44;26.81;97792.19;5058765;28;20496;-82
2021/07/30 02:43:52;;;;;;;4.00;1.20;;;;;;;33.26;27.13;97796.16;5056009;28;20052;-83
2021/07/30 02:46:19;;;;;;;1.85;1.00;;;;;;;33.38;26.61;97794.19;5055936;28;20373;-82
2021/07/30 02:48:46;;;;;;;3.30;1.30;;;;;;;33.31;26.51;97797.47;5061321;28;20541;-82
2021/07/30 02:51:13;;;;;;;2.38;1.17;;;;;;;33.30;26.72;97793.84;5057034;28;20025;-83
2021/07/30 02:53:39;;;;;;;1.90;1.20;;;;;;;33.32;26.31;97802.69;5068500;28;20032;-83
2021/07/30 02:56:06;;;;;;;2.70;0.90;;;;;;;33.26;26.26;97799.00;5065637;28;20060;-83
2021/07/30 02:58:32;;;;;;;2.55;1.23;;;;;;;33.21;26.66;97799.72;5061846;28;20106;-83
2021/07/30 03:00:59;;;;;;;2.38;1.20;;;;;;;32.94;27.15;97802.28;5063557;28;20029;-83
2021/07/30 03:03:25;;;;;;;1.73;1.30;;;;;;;32.68;27.86;97802.25;5068382;28;20408;-83
2021/07/30 03:05:52;;;;;;;1.45;1.02;;;;;;;32.89;27.11;97795.25;5063175;28;20040;-82
2021/07/30 03:08:18;;;;;;;2.55;1.23;;;;;;;33.07;27.10;97794.19;5060485;28;20040;-82
2021/07/30 03:10:46;;;;;;;1.40;1.25;;;;;;;33.43;26.18;97787.75;5061012;28;20420;-83
2021/07/30 03:13:12;;;;;;;1.00;0.90;;;;;;;33.68;26.14;97786.19;5059866;28;20043;-82
2021/07/30 03:15:38;;;;;;;1.50;0.90;;;;;;;33.64;26.45;97788.47;5064123;28;20044;-83
2021/07/30 03:18:04;;;;;;;1.67;1.15;;;;;;;33.50;26.36;97797.91;5056004;28;20033;-83
2021/07/30 03:20:30;;;;;;;0.98;0.70;;;;;;;33.73;25.78;97791.91;5057249;28;20041;-83
2021/07/30 03:22:56;;;;;;;1.55;0.88;;;;;;;33.77;25.73;97792.44;5062184;28;20087;-82
2021/07/30 03:25:22;;;;;;;1.38;0.82;;;;;;;33.89;25.33;97798.97;5059325;28;20025;-83
2021/07/30 03:27:48;;;;;;;1.00;0.90;;;;;;;34.00;25.04;97796.97;5069088;28;20033;-83
2021/07/30 03:30:15;;;;;;;0.82;0.82;;;;;;;34.10;25.22;97788.28;5054661;28;20056;-82
2021/07/30 03:32:42;;;;;;;2.22;1.00;;;;;;;33.89;25.45;97782.69;5060527;28;20481;-83
2021/07/30 03:35:09;;;;;;;1.15;1.05;;;;;;;33.75;25.62;97782.88;5057847;28;20033;-83
2021/07/30 03:37:35;;;;;;;1.17;0.90;;;;;;;33.66;25.92;97789.50;5059812;28;20036;-83
2021/07/30 03:40:02;;;;;;;1.02;0.80;;;;;;;33.71;25.85;97788.78;5056416;28;20033;-83
2021/07/30 03:42:28;;;;;;;1.17;1.00;;;;;;;33.95;25.30;97794.13;5063675;28;20472;-82
2021/07/30 03:44:54;;;;;;;1.50;1.10;;;;;;;34.24;25.04;97787.31;5055377;28;20052;-83
2021/07/30 03:47:20;;;;;;;1.88;0.90;;;;;;;34.43;25.07;97792.06;5056423;28;20063;-82
2021/07/30 03:49:46;;;;;;;0.85;0.77;;;;;;;34.56;24.57;97789.56;5056776;28;20044;-82
2021/07/30 03:52:12;;;;;;;1.08;0.85;;;;;;;34.42;25.58;97792.56;5055757;28;20056;-83
2021/07/30 03:54:38;;;;;;;0.57;0.57;;;;;;;34.13;25.64;97792.94;5067045;28;20029;-82
2021/07/30 03:57:05;;;;;;;0.80;0.70;;;;;;;34.15;25.74;97790.34;5058194;28;20025;-82
2021/07/30 03:59:31;;;;;;;1.00;0.80;;;;;;;34.40;25.38;97800.88;5062218;28;20032;-82
2021/07/30 04:01:57;;;;;;;1.00;0.90;;;;;;;34.59;25.69;97796.28;5065237;28;20472;-82
2021/07/30 04:04:23;;;;;;;2.13;0.80;;;;;;;34.66;24.93;97792.94;5054275;28;20040;-83
2021/07/30 04:06:49;;;;;;;1.10;0.77;;;;;;;34.83;24.89;97788.06;5061487;28;20025;-82
2021/07/30 04:09:15;;;;;;;1.00;0.85;;;;;;;34.71;25.19;97795.03;5055728;28;20036;-82
2021/07/30 04:11:42;;;;;;;3.22;1.05;;;;;;;34.64;25.21;97802.03;5055407;28;20058;-83
2021/07/30 04:14:09;;;;;;;1.42;0.90;;;;;;;34.61;25.53;97793.72;5054941;28;20041;-83
2021/07/30 04:16:36;;;;;;;1.75;0.80;;;;;;;34.98;25.18;97797.19;5057933;28;20116;-83
2021/07/30 04:19:04;;;;;;;0.80;0.70;;;;;;;35.05;24.89;97798.78;5055890;28;20033;-83
2021/07/30 04:21:30;;;;;;;1.15;0.93;;;;;;;34.97;25.79;97792.75;5059816;28;20047;-83
2021/07/30 04:23:58;;;;;;;3.53;1.30;;;;;;;34.97;26.17;97797.69;5057576;28;20040;-82
2021/07/30 04:26:24;;;;;;;1.08;0.80;;;;;;;35.02;26.39;97797.75;5060483;28;20025;-82
2021/07/30 04:28:50;;;;;;;1.50;1.20;;;;;;;35.20;26.34;97793.59;5063490;28;20037;-83
2021/07/30 04:31:16;;;;;;;1.00;0.90;;;;;;;35.51;25.97;97801.97;5060384;28;20435;-82
2021/07/30 04:33:42;;;;;;;1.55;1.25;;;;;;;35.69;25.68;97792.06;5060601;28;20044;-83
2021/07/30 04:36:17;;;;;;;1.25;1.00;;;;;;;35.74;26.04;97794.16;5053132;28;20043;-83
2021/07/30 04:38:44;;;;;;;1.10;1.00;;;;;;;35.99;26.49;97793.88;5063878;28;20036;-83
2021/07/30 04:41:11;;;;;;;1.55;1.10;;;;;;;36.20;25.78;97805.75;5052741;28;20037;-83
2021/07/30 04:43:37;;;;;;;1.10;0.90;;;;;;;36.23;26.14;97810.44;5055738;28;20166;-83
2021/07/30 04:46:03;;;;;;;1.30;1.08;;;;;;;36.30;26.12;97800.53;5062607;28;20110;-83
2021/07/30 04:48:29;;;;;;;0.90;0.73;;;;;;;36.37;26.51;97800.00;5065333;28;20116;-83
2021/07/30 04:50:56;;;;;;;1.33;0.93;;;;;;;36.51;25.43;97808.31;5065026;28;20106;-83
2021/07/30 04:53:22;;;;;;;1.73;0.95;;;;;;;36.47;25.23;97799.22;5059933;28;20031;-83
2021/07/30 04:55:48;;;;;;;1.83;0.80;;;;;;;36.24;24.96;97797.72;5062823;28;20036;-83
2021/07/30 04:58:14;;;;;;;0.70;0.70;;;;;;;36.05;25.85;97794.66;5063532;28;20040;-83
2021/07/30 05:00:40;;;;;;;0.93;0.93;;;;;;;35.99;25.47;97801.66;5057192;28;20499;-83
2021/07/30 05:03:06;;;;;;;0.95;0.85;;;;;;;36.42;26.41;97804.94;5063419;28;20044;-84
2021/07/30 05:05:32;;;;;;;0.90;0.70;;;;;;;36.71;26.54;97805.06;5063288;28;20025;-83
2021/07/30 05:07:58;;;;;;;0.98;0.80;;;;;;;36.87;25.98;97797.72;5059731;28;20036;-83
2021/07/30 05:10:24;;;;;;;0.70;0.70;;;;;;;36.88;26.71;97804.19;5059027;28;20033;-83
2021/07/30 05:12:50;;;;;;;1.17;0.80;;;;;;;37.04;26.99;97800.53;5058483;28;20029;-83
2021/07/30 05:15:16;;;;;;;1.60;0.80;;;;;;;37.11;26.61;97800.72;5062842;28;20070;-82
2021/07/30 05:17:42;;;;;;;0.70;0.70;;;;;;;37.18;26.14;97805.88;5061553;28;20476;-83
2021/07/30 05:20:09;;;;;;;1.88;0.80;;;;;;;36.93;25.67;97801.34;5053546;28;20040;-83
2021/07/30 05:22:35;;;;;;;2.03;0.90;;;;;;;36.87;26.02;97803.44;5056836;28;20047;-83
2021/07/30 05:25:02;;;;;;;1.58;1.02;;;;;;;37.09;26.33;97794.75;5052385;28;20033;-83
2021/07/30 05:27:28;;;;;;;0.75;0.75;;;;;;;37.28;25.31;97795.66;5070609;28;20052;-83
2021/07/30 05:29:58;;;;;;;1.10;1.00;;;;;;;37.30;25.10;97800.84;5064548;28;20072;-83
2021/07/30 05:32:24;;;;;;;0.80;0.80;;;;;;;37.16;25.58;97794.16;5065343;28;20108;-83
2021/07/30 05:34:50;;;;;;;1.05;0.90;;;;;;;37.32;26.09;97796.13;5062219;28;20037;-83
2021/07/30 05:37:16;;;;;;;1.33;1.17;;;;;;;37.47;26.24;97801.53;5068063;28;20025;-83
2021/07/30 05:39:43;;;;;;;2.10;0.90;;;;;;;37.83;25.92;97805.91;5070551;28;20044;-83
2021/07/30 05:42:09;;;;;;;1.75;1.00;;;;;;;38.28;24.73;97797.66;5057379;28;20515;-83
2021/07/30 05:44:36;;;;;;;0.70;0.70;;;;;;;38.64;24.08;97795.38;5071075;28;20469;-84
2021/07/30 05:47:03;;;;;;;3.20;0.70;;;;;;;38.96;23.55;97795.50;5071095;28;20434;-83
2021/07/30 05:49:29;;;;;;;0.85;0.63;;;;;;;39.31;21.81;97804.66;5073759;28;20044;-84
2021/07/30 05:51:55;;;;;;;0.70;0.70;;;;;;;39.47;21.69;97802.06;5064197;28;20082;-84
2021/07/30 05:54:21;;;;;;;0.60;0.60;;;;;;;39.67;21.94;97802.25;5075570;28;20028;-84
2021/07/30 05:56:47;;;;;;;0.68;0.60;;;;;;;39.65;23.06;97804.13;5063362;28;20033;-83
2021/07/30 05:59:13;;;;;;;1.10;1.00;;;;;;;39.63;22.04;97810.41;5072753;28;20045;-84
2021/07/30 06:01:40;;;;;;;0.75;0.70;;;;;;;39.79;21.61;97805.72;5076593;28;20029;-81
2021/07/30 06:04:06;;;;;;;0.90;0.70;;;;;;;39.91;21.97;97804.94;5075373;28;20040;-80
2021/07/30 06:06:32;;;;;;;1.08;0.90;;;;;;;39.95;21.60;97813.28;5062867;28;20104;-83
2021/07/30 06:08:58;;;;;;;0.80;0.80;;;;;;;39.98;20.50;97815.81;5053652;28;20033;-83
2021/07/30 06:11:24;;;;;;;0.98;0.70;;;;;;;39.51;21.46;97811.91;5055184;28;20504;-83
2021/07/30 06:13:50;;;;;;;0.95;0.80;;;;;;;39.23;21.87;97818.06;5063367;28;20024;-84
2021/07/30 06:16:16;;;;;;;0.98;0.98;;;;;;;39.07;21.55;97826.94;5065507;28;20033;-83
2021/07/30 06:18:43;;;;;;;1.33;0.90;;;;;;;39.15;21.67;97819.25;5066485;28;20029;-83
2021/07/30 06:21:09;;;;;;;1.55;0.98;;;;;;;39.21;21.80;97814.97;5064099;28;20012;-81
2021/07/30 06:23:36;;;;;;;1.25;1.10;;;;;;;39.40;22.53;97823.56;5069441;28;20043;-81
2021/07/30 06:26:02;;;;;;;1.48;0.90;;;;;;;39.58;22.16;97817.06;5070125;28;20021;-80
2021/07/30 06:28:28;;;;;;;1.92;1.13;;;;;;;39.69;22.17;97822.63;5063049;28;20045;-81
2021/07/30 06:30:54;;;;;;;1.52;1.10;;;;;;;39.57;21.50;97824.09;5061578;28;20025;-80
2021/07/30 06:33:22;;;;;;;1.25;0.95;;;;;;;39.46;21.88;97827.16;5067608;28;20039;-81
2021/07/30 06:35:50;;;;;;;1.15;0.90;;;;;;;39.72;21.83;97823.63;5060482;28;20032;-83
2021/07/30 06:38:16;;;;;;;1.10;1.00;;;;;;;40.06;22.16;97821.72;5072023;28;20047;-83
2021/07/30 06:40:47;;;;;;;1.30;1.08;;;;;;;40.22;22.00;97820.63;5068351;28;20029;-83
2021/07/30 06:43:14;;;;;;;2.17;1.13;;;;;;;40.21;21.34;97819.09;5062960;28;20037;-83
2021/07/30 06:45:41;;;;;;;1.10;1.00;;;;;;;39.76;22.83;97821.19;5065670;28;20500;-84
2021/07/30 06:48:07;;;;;;;1.30;1.00;;;;;;;39.99;21.86;97816.59;5065680;28;20036;-81
2021/07/30 06:50:33;;;;;;;1.50;0.88;;;;;;;40.17;22.18;97821.50;5064283;28;20033;-81
2021/07/30 06:53:00;;;;;;;2.10;0.90;;;;;;;40.37;21.88;97817.22;5054741;28;20044;-81
2021/07/30 06:55:26;;;;;;;0.80;0.80;;;;;;;40.49;22.00;97822.22;5062216;28;20035;-81
2021/07/30 06:57:52;;;;;;;1.27;1.10;;;;;;;40.20;21.78;97819.63;5054683;28;20074;-81
2021/07/30 07:00:18;;;;;;;0.80;0.70;;;;;;;39.98;21.87;97820.81;5071458;28;20032;-81
2021/07/30 07:02:44;;;;;;;1.10;1.00;;;;;;;40.03;22.50;97811.31;5069180;28;20037;-81
2021/07/30 07:05:10;;;;;;;0.98;0.90;;;;;;;40.10;21.89;97812.78;5063881;28;20035;-81
2021/07/30 07:07:36;;;;;;;0.80;0.80;;;;;;;40.16;22.28;97807.69;5074145;28;20132;-81
2021/07/30 07:10:02;;;;;;;2.28;0.98;;;;;;;40.29;21.89;97810.56;5053628;28;20041;-81
2021/07/30 07:12:28;;;;;;;1.80;0.98;;;;;;;40.17;21.83;97810.00;5059315;28;20119;-81
2021/07/30 07:14:54;;;;;;;0.70;0.70;;;;;;;39.57;21.83;97803.97;5068694;28;20059;-80
2021/07/30 07:17:20;;;;;;;2.60;1.00;;;;;;;39.29;23.07;97804.41;5067695;28;20040;-81
2021/07/30 07:19:47;;;;;;;1.10;1.00;;;;;;;39.43;22.33;97807.34;5065914;28;20024;-81
2021/07/30 07:22:13;;;;;;;1.02;0.93;;;;;;;39.11;23.88;97798.66;5054880;28;20112;-81
2021/07/30 07:24:40;;;;;;;1.17;1.08;;;;;;;38.56;23.42;97805.91;5067504;28;20025;-82
2021/07/30 07:27:07;;;;;;;1.40;1.27;;;;;;;39.01;23.47;97800.38;5073565;28;20043;-80
2021/07/30 07:29:33;;;;;;;0.73;0.73;;;;;;;39.09;23.03;97804.19;5072657;28;20036;-81
2021/07/30 07:32:00;;;;;;;1.00;1.00;;;;;;;38.28;23.82;97805.47;5068268;28;20029;-81
2021/07/30 07:34:26;;;;;;;0.93;0.88;;;;;;;38.86;23.25;97795.09;5059437;28;20063;-80
2021/07/30 07:36:53;;;;;;;2.95;1.10;;;;;;;39.14;22.45;97792.59;5054001;28;20033;-82
2021/07/30 07:39:19;;;;;;;1.23;1.13;;;;;;;36.89;25.43;97797.19;5061861;28;20137;-82
2021/07/30 07:41:45;;;;;;;6.00;1.45;;;;;;;37.35;24.31;97802.88;5069938;28;20040;-82
2021/07/30 07:44:15;;;;;;;2.17;1.25;;;;;;;37.56;24.86;97801.19;5053730;28;20065;-82
2021/07/30 07:46:42;;;;;;;1.40;1.10;;;;;;;38.01;23.78;97807.31;5062351;28;20125;-82
2021/07/30 07:49:08;;;;;;;1.55;1.40;;;;;;;38.15;22.71;97800.38;5065812;28;20043;-82
2021/07/30 07:51:36;;;;;;;1.50;1.05;;;;;;;38.32;22.81;97801.00;5065222;28;20033;-81
2021/07/30 07:54:05;;;;;;;1.70;1.15;;;;;;;37.28;24.91;97798.50;5063651;28;20086;-81
2021/07/30 07:56:32;;;;;;;1.92;1.58;;;;;;;37.48;24.79;97791.63;5060533;28;20433;-81
2021/07/30 07:58:58;;;;;;;1.45;1.35;;;;;;;37.09;24.71;97788.22;5059543;28;20044;-81
2021/07/30 08:01:24;;;;;;;1.45;1.35;;;;;;;36.94;25.09;97791.47;5053262;28;20071;-81
2021/07/30 08:03:50;;;;;;;1.60;1.50;;;;;;;37.26;24.49;97786.03;5063842;28;20032;-82
2021/07/30 08:06:20;;;;;;;5.22;1.55;;;;;;;38.01;23.82;97790.09;5068999;28;20037;-81
2021/07/30 08:08:47;;;;;;;1.65;1.42;;;;;;;37.61;23.53;97786.03;5061768;28;20045;-81
2021/07/30 08:11:14;;;;;;;1.50;1.40;;;;;;;38.54;22.63;97783.50;5053673;28;20025;-81
2021/07/30 08:13:43;;;;;;;1.58;1.40;;;;;;;38.80;24.42;97785.78;5053361;28;20473;-82
2021/07/30 08:16:10;;;;;;;1.40;1.30;;;;;;;39.49;22.19;97785.03;5072118;28;20041;-83
2021/07/30 08:18:36;;;;;;;1.38;1.27;;;;;;;37.89;24.13;97792.31;5069399;28;20112;-83
2021/07/30 08:21:03;;;;;;;1.85;1.58;;;;;;;38.03;23.55;97784.59;5081451;28;20024;-83
2021/07/30 08:23:29;;;;;;;1.63;1.52;;;;;;;38.84;22.15;97785.50;5075642;28;20032;-82
2021/07/30 08:25:55;;;;;;;1.88;1.42;;;;;;;39.20;22.17;97781.84;5073301;28;20035;-84
2021/07/30 08:28:22;;;;;;;3.08;1.58;;;;;;;39.07;22.98;97781.75;5072833;28;20037;-83
2021/07/30 08:30:48;;;;;;;1.58;1.30;;;;;;;39.61;22.58;97781.44;5062764;28;20408;-84
2021/07/30 08:33:16;;;;;;;3.70;1.40;;;;;;;39.65;22.51;97778.25;5072617;28;20025;-82
2021/07/30 08:35:42;;;;;;;1.23;1.13;;;;;;;38.69;23.15;97780.19;5072647;28;20408;-80
2021/07/30 08:38:08;;;;;;;1.48;1.38;;;;;;;38.92;24.32;97777.81;5070697;28;20033;-80
2021/07/30 08:40:36;;;;;;;1.52;1.35;;;;;;;39.25;22.62;97778.13;5072545;28;20028;-81
2021/07/30 08:43:02;;;;;;;1.42;1.33;;;;;;;38.86;24.64;97782.84;5070806;28;20033;-82
2021/07/30 08:45:28;;;;;;;1.17;1.08;;;;;;;38.47;24.87;97777.59;5064243;28;20439;-82
2021/07/30 08:47:55;;;;;;;1.48;1.20;;;;;;;38.27;24.16;97776.03;5056012;28;20126;-82
2021/07/30 08:50:22;;;;;;;1.50;1.40;;;;;;;37.43;25.08;97780.22;5051160;28;20040;-82
2021/07/30 08:52:55;;;;;;;2.08;1.35;;;;;;;38.01;24.75;97772.91;5052582;28;20029;-82
2021/07/30 08:55:29;;;;;;;1.50;1.20;;;;;;;38.78;24.92;97758.94;5063928;28;20033;-81
2021/07/30 08:57:55;;;;;;;1.88;1.35;;;;;;;38.86;23.64;97769.25;5073512;28;20020;-82
2021/07/30 09:00:22;;;;;;;1.40;1.30;;;;;;;39.24;23.06;97762.19;5093050;28;20035;-82
2021/07/30 09:02:48;;;;;;;2.20;1.48;;;;;;;39.37;22.90;97767.22;5067822;28;20028;-82
2021/07/30 09:05:33;;;;;;;1.15;1.08;;;;;;;39.31;23.11;97761.53;5073324;28;20047;-82
2021/07/30 09:08:02;;;;;;;1.40;1.30;;;;;;;38.78;23.49;97764.69;5061416;28;20024;-82
2021/07/30 09:10:38;;;;;;;1.13;1.10;;;;;;;38.46;23.37;97770.31;5069627;28;20044;-82
2021/07/30 09:13:27;;;;;;;1.20;1.10;;;;;;;37.99;24.18;97767.72;5074630;28;20048;-82
2021/07/30 09:16:07;;;;;;;1.30;1.17;;;;;;;37.32;26.92;97772.44;5076582;28;20504;-82
2021/07/30 09:18:42;;;;;;;1.40;1.30;;;;;;;37.35;25.46;97760.69;5073890;28;20107;-83
2021/07/30 09:21:32;;;;;;;2.60;1.55;;;;;;;37.36;25.45;97758.63;5074661;28;20101;-82
2021/07/30 09:24:05;;;;;;;1.58;1.48;;;;;;;37.34;26.64;97759.13;5067271;28;20027;-82
2021/07/30 09:26:50;;;;;;;1.52;1.30;;;;;;;37.33;26.06;97751.88;5056547;28;20021;-83
2021/07/30 09:29:37;;;;;;;1.35;1.25;;;;;;;37.89;23.56;97740.72;5069226;28;20491;-82
2021/07/30 09:32:05;;;;;;;1.73;1.45;;;;;;;37.42;24.15;97730.72;5069662;28;20043;-83
2021/07/30 09:34:35;;;;;;;1.75;1.60;;;;;;;38.57;23.04;97724.25;5075047;28;20099;-82
2021/07/30 09:37:06;;;;;;;;;;;;;;;39.14;22.63;97720.03;5071859;28;20082;-81
2021/07/30 09:39:45;;;;;;;1.83;1.52;;;;;;;38.96;23.99;97721.59;5066870;28;19965;-81
2021/07/30 09:42:13;;;;;;;1.40;1.30;;;;;;;39.00;22.36;97712.69;5069167;28;20043;-81
2021/07/30 09:44:47;;;;;;;1.60;1.50;;;;;;;39.47;21.83;97715.84;5076004;28;20040;-82
2021/07/30 09:47:14;;;;;;;1.30;1.20;;;;;;;39.41;22.03;97720.91;5055210;28;20037;-81
2021/07/30 09:49:48;;;;;;;1.70;1.60;;;;;;;39.99;21.08;97701.53;5074483;28;20083;-82
2021/07/30 09:52:16;;;;;;;1.10;1.00;;;;;;;39.93;21.32;97707.38;5072402;28;20123;-81
2021/07/30 09:54:48;;;;;;;1.13;1.02;;;;;;;39.98;20.84;97702.88;5075882;28;20107;-81
2021/07/30 09:57:25;;;;;;;1.20;1.10;;;;;;;40.18;22.31;97702.22;5071037;28;20041;-80
2021/07/30 09:59:51;;;;;;;1.30;1.10;;;;;;;39.53;22.17;97697.19;5067716;28;20480;-81
2021/07/30 10:02:22;;;;;;;1.38;1.27;;;;;;;39.19;21.95;97691.22;5085522;28;20492;-81
2021/07/30 10:04:52;;;;;;;1.60;1.50;;;;;;;38.17;23.26;97693.72;5075905;28;20021;-81
2021/07/30 10:07:20;;;;;;;1.70;1.27;;;;;;;37.26;24.82;97703.75;5070684;28;20032;-82
2021/07/30 10:09:51;;;;;;;1.45;1.35;;;;;;;37.98;24.76;97696.56;5075628;28;20044;-82
2021/07/30 10:12:18;;;;;;;1.63;1.52;;;;;;;38.41;23.84;97685.88;5072434;28;20480;-82
2021/07/30 10:14:45;;;;;;;1.67;1.58;;;;;;;38.78;22.86;97690.06;5072986;28;20036;-81
2021/07/30 10:17:15;;;;;;;1.40;1.30;;;;;;;39.49;22.48;97690.97;5066650;28;20036;-82
2021/07/30 10:19:43;;;;;;;1.50;1.40;;;;;;;40.37;21.74;97688.47;5075168;28;20028;-82
2021/07/30 10:22:13;;;;;;;1.33;1.23;;;;;;;39.97;22.68;97686.94;5053384;28;20044;-81
2021/07/30 10:24:45;;;;;;;1.63;1.48;;;;;;;39.32;22.15;97679.78;5055790;28;20365;-82
2021/07/30 10:27:12;;;;;;;1.50;1.27;;;;;;;39.42;22.38;97683.00;5060382;28;20032;-81
2021/07/30 10:30:07;;;;;;;1.73;1.63;;;;;;;39.25;23.18;97680.44;5073138;28;20488;-83
2021/07/30 10:32:46;;;;;;;5.80;2.95;;;;;;;39.19;21.95;97676.09;5071110;28;20032;-81
2021/07/30 10:35:15;;;;;;;1.92;1.75;;;;;;;39.73;22.47;97670.69;5068135;28;20060;-81
2021/07/30 10:37:47;;;;;;;2.78;1.48;;;;;;;40.49;22.54;97663.91;5062961;28;20033;-81
2021/07/30 10:40:20;;;;;;;1.55;1.45;;;;;;;40.61;21.18;97661.53;5071596;28;20029;-81
2021/07/30 10:43:04;;;;;;;1.45;1.35;;;;;;;40.63;20.16;97658.88;5067967;28;20044;-81
2021/07/30 10:45:43;;;;;;;1.90;1.70;;;;;;;39.98;21.78;97659.75;5055086;28;20069;-82
2021/07/30 10:48:15;;;;;;;1.70;1.60;;;;;;;39.30;21.91;97661.53;5069473;28;20124;-81
2021/07/30 10:50:43;;;;;;;2.05;1.40;;;;;;;40.00;21.14;97657.84;5066608;28;20037;-82
2021/07/30 10:53:31;;;;;;;1.65;1.55;;;;;;;40.05;21.20;97650.47;5074831;28;20043;-82
2021/07/30 10:56:01;;;;;;;2.92;2.53;;;;;;;39.57;21.66;97650.84;5063948;28;20036;-81
2021/07/30 10:58:39;;;;;;;3.88;2.03;;;;;;;39.99;21.13;97644.78;5054937;28;20119;-81
2021/07/30 11:01:15;;;;;;;1.92;1.70;;;;;;;39.65;21.88;97638.19;5066603;28;20423;-81
2021/07/30 11:03:53;;;;;;;1.73;1.63;;;;;;;39.48;22.80;97648.41;5074695;28;20047;-82
2021/07/30 11:06:20;;;;;;;5.43;1.88;;;;;;;39.46;22.38;97651.06;5054831;28;20033;-81
2021/07/30 11:09:02;;;;;;;2.28;1.80;;;;;;;40.33;21.11;97632.59;5056018;28;20128;-82
2021/07/30 11:11:50;;;;;;;1.52;1.42;;;;;;;40.52;21.57;97636.88;5063978;28;20039;-81
2021/07/30 11:14:33;;;;;;;2.08;1.90;;;;;;;40.24;22.53;97641.69;5072676;28;20024;-81
2021/07/30 11:17:01;;;;;;;1.77;1.50;;;;;;;40.43;21.95;97630.78;5066212;28;20032;-82
2021/07/30 11:19:33;;;;;;;1.67;1.50;;;;;;;40.28;21.49;97622.75;5072048;28;20043;-81
2021/07/30 11:22:01;;;;;;;1.75;1.65;;;;;;;40.82;20.78;97621.25;5072769;28;20434;-81
2021/07/30 11:24:27;;;;;;;2.83;1.58;;;;;;;41.17;19.63;97627.16;5072576;28;20044;-82
2021/07/30 11:26:54;;;;;;;1.25;1.15;;;;;;;41.43;19.38;97622.59;5072035;28;20028;-81
2021/07/30 11:29:21;;;;;;;1.48;1.38;;;;;;;40.74;20.89;97629.81;5062813;28;20555;-81
2021/07/30 11:31:52;;;;;;;1.83;1.30;;;;;;;41.29;19.82;97622.69;5073531;28;20036;-81
2021/07/30 11:34:32;;;;;;;1.38;1.27;;;;;;;41.23;19.41;97616.28;5073477;28;20021;-81
2021/07/30 11:37:08;;;;;;;1.47;1.20;;;;;;;41.26;19.47;97620.94;5071927;28;20025;-82
2021/07/30 11:39:34;;;;;;;1.30;1.20;;;;;;;41.66;19.70;97623.53;5069199;28;20287;-81